Time;durP1;ratioP1;P1;durP2;ratioP2;P2;SDS_P1;SDS_P2;PMS_P1;PMS_P2;Temp;Humidity;BMP_temperature;BMP_pressure;BME280_temperature;BME280_humidity;BME280_pressure;Samples;Min_cycle;Max_cycle;Signal;HPM_P1;HPM_P2
2022/11/22 00:02:24;;;;;;;42.20;17.10;;;;;;;0.53;100.00;100312.90;105345;1269;59104;-68
2022/11/22 00:04:56;;;;;;;44.50;16.20;;;;;;;0.56;100.00;100311.96;105328;1267;62449;-67
2022/11/22 00:07:25;;;;;;;38.60;13.90;;;;;;;0.57;100.00;100311.72;105500;1266;69517;-67
2022/11/22 00:09:54;;;;;;;43.30;17.00;;;;;;;0.60;100.00;100315.91;105472;1275;68134;-69
2022/11/22 00:12:23;;;;;;;43.30;17.70;;;;;;;0.65;100.00;100315.39;105541;1269;71802;-68
2022/11/22 00:14:52;;;;;;;47.00;18.20;;;;;;;0.69;100.00;100316.77;105486;1270;61928;-68
2022/11/22 00:17:24;;;;;;;48.10;19.10;;;;;;;0.69;100.00;100314.52;105487;1267;59236;-69
2022/11/22 00:19:53;;;;;;;41.00;17.10;;;;;;;0.71;100.00;100318.76;105426;1270;71550;-69
2022/11/22 00:22:22;;;;;;;40.40;17.60;;;;;;;0.70;100.00;100317.23;105456;1267;71504;-68
2022/11/22 00:24:52;;;;;;;40.80;17.50;;;;;;;0.71;100.00;100311.89;105471;1275;59911;-69
2022/11/22 00:27:21;;;;;;;36.90;13.10;;;;;;;0.72;100.00;100309.80;105507;1274;70311;-69
2022/11/22 00:29:50;;;;;;;42.50;18.80;;;;;;;0.75;100.00;100312.60;105490;1268;60296;-68
2022/11/22 00:32:19;;;;;;;44.80;18.90;;;;;;;0.74;100.00;100309.52;105432;1267;60615;-68
2022/11/22 00:34:48;;;;;;;38.80;17.20;;;;;;;0.77;100.00;100311.66;105549;1262;71839;-68
2022/11/22 00:37:17;;;;;;;38.00;16.60;;;;;;;0.83;100.00;100309.38;105507;1270;73552;-69
2022/11/22 00:39:46;;;;;;;41.40;17.80;;;;;;;0.84;100.00;100312.58;105461;1266;68962;-70
2022/11/22 00:42:15;;;;;;;40.90;17.80;;;;;;;0.80;100.00;100311.35;105272;1267;72092;-69
2022/11/22 00:44:44;;;;;;;40.60;17.30;;;;;;;0.72;100.00;100313.04;105379;1264;59676;-69
2022/11/22 00:47:13;;;;;;;34.10;14.60;;;;;;;0.84;100.00;100317.75;105372;1275;58335;-69
2022/11/22 00:49:42;;;;;;;44.60;18.10;;;;;;;0.85;100.00;100309.98;105399;1273;71062;-70
2022/11/22 00:52:11;;;;;;;39.60;17.10;;;;;;;0.83;100.00;100309.88;105410;1262;71122;-69
2022/11/22 00:54:40;;;;;;;42.00;17.50;;;;;;;0.87;100.00;100314.71;105386;1270;70473;-70
2022/11/22 00:57:09;;;;;;;48.50;20.10;;;;;;;0.84;100.00;100321.87;105440;1264;71140;-70
2022/11/22 00:59:38;;;;;;;40.80;17.40;;;;;;;0.78;100.00;100324.64;105525;1267;59889;-70
2022/11/22 01:02:07;;;;;;;38.50;16.40;;;;;;;0.82;100.00;100325.00;105486;1269;61310;-69
2022/11/22 01:04:35;;;;;;;38.30;17.20;;;;;;;0.86;100.00;100327.27;105494;1270;74071;-67
2022/11/22 01:07:04;;;;;;;37.50;15.10;;;;;;;0.90;100.00;100325.89;105467;1266;72142;-69
2022/11/22 01:09:33;;;;;;;37.10;16.70;;;;;;;0.93;100.00;100322.55;105499;1270;59835;-68
2022/11/22 01:12:03;;;;;;;35.10;15.80;;;;;;;0.91;100.00;100319.16;105532;1271;73733;-70
2022/11/22 01:14:32;;;;;;;33.10;15.80;;;;;;;0.88;100.00;100321.17;105533;1267;61769;-69
2022/11/22 01:17:00;;;;;;;40.40;16.80;;;;;;;0.90;100.00;100325.06;105727;1260;61136;-70
2022/11/22 01:19:29;;;;;;;37.10;16.10;;;;;;;0.85;100.00;100327.98;105677;1255;63946;-71
2022/11/22 01:21:58;;;;;;;39.50;16.70;;;;;;;0.89;100.00;100331.44;105508;1270;71960;-70
2022/11/22 01:24:27;;;;;;;41.30;17.10;;;;;;;0.93;100.00;100335.56;105555;1269;70399;-70
2022/11/22 01:26:56;;;;;;;38.80;16.60;;;;;;;0.99;100.00;100337.91;105535;1266;71940;-70
2022/11/22 01:29:25;;;;;;;43.00;17.60;;;;;;;0.98;100.00;100338.13;105444;1266;60706;-71
2022/11/22 01:31:54;;;;;;;40.70;17.60;;;;;;;0.94;100.00;100334.98;105576;1274;61553;-70
2022/11/22 01:34:23;;;;;;;39.00;17.70;;;;;;;0.96;100.00;100334.23;105673;1265;64744;-69
2022/11/22 01:36:52;;;;;;;33.70;14.10;;;;;;;0.99;100.00;100333.96;105750;1260;71685;-71
2022/11/22 01:39:21;;;;;;;45.40;17.80;;;;;;;1.00;100.00;100336.14;105747;1270;61028;-71
2022/11/22 01:41:50;;;;;;;41.80;17.60;;;;;;;0.98;100.00;100332.82;105685;1272;73277;-69
2022/11/22 01:44:28;;;;;;;49.90;18.40;;;;;;;1.06;100.00;100336.94;105780;1261;59063;-69
2022/11/22 01:47:04;;;;;;;43.70;16.50;;;;;;;1.05;100.00;100338.02;105823;1261;59421;-70
2022/11/22 01:50:04;;;;;;;45.10;19.40;;;;;;;0.96;100.00;100335.30;105842;1273;71661;-69
2022/11/22 01:52:34;;;;;;;47.20;19.80;;;;;;;1.02;100.00;100327.84;105605;1264;72516;-69
2022/11/22 01:55:11;;;;;;;49.20;18.70;;;;;;;1.02;100.00;100330.73;105535;1264;70960;-68
2022/11/22 01:57:43;;;;;;;50.00;18.40;;;;;;;1.08;100.00;100326.91;105538;1266;62826;-67
2022/11/22 02:00:15;;;;;;;46.50;17.40;;;;;;;1.02;100.00;100328.52;105493;1275;62051;-66
2022/11/22 02:02:57;;;;;;;42.30;18.50;;;;;;;1.06;100.00;100329.73;105473;1271;59067;-66
2022/11/22 02:05:32;;;;;;;45.70;18.30;;;;;;;1.06;100.00;100327.33;105539;1267;61914;-67
2022/11/22 02:08:25;;;;;;;41.10;17.90;;;;;;;1.03;100.00;100329.54;105436;1266;72181;-66
2022/11/22 02:10:55;;;;;;;43.00;19.30;;;;;;;1.07;100.00;100337.77;105541;1265;59436;-67
2022/11/22 02:13:26;;;;;;;49.10;20.00;;;;;;;1.12;100.00;100342.52;105449;1269;71824;-68
2022/11/22 02:15:56;;;;;;;41.20;19.20;;;;;;;1.20;100.00;100336.02;105285;1272;61821;-67
2022/11/22 02:18:25;;;;;;;43.80;19.60;;;;;;;1.21;100.00;100335.50;105414;1269;60264;-67
2022/11/22 02:20:54;;;;;;;46.90;20.20;;;;;;;1.26;100.00;100341.45;105394;1267;71929;-67
2022/11/22 02:23:42;;;;;;;53.20;19.50;;;;;;;1.38;100.00;100344.25;105417;1262;60839;-68
2022/11/22 02:26:12;;;;;;;43.60;19.10;;;;;;;1.42;100.00;100347.19;105313;1270;59812;-68
2022/11/22 02:28:41;;;;;;;50.90;20.70;;;;;;;1.36;100.00;100348.95;105438;1274;73874;-68
2022/11/22 02:31:34;;;;;;;48.80;19.90;;;;;;;1.47;100.00;100348.34;105481;1266;58801;-67
2022/11/22 02:34:03;;;;;;;42.20;20.50;;;;;;;1.44;100.00;100351.73;105475;1262;60774;-68
2022/11/22 02:36:38;;;;;;;37.30;19.90;;;;;;;1.49;100.00;100355.83;105439;1262;63318;-68
2022/11/22 02:39:09;;;;;;;37.00;20.80;;;;;;;1.50;99.97;100351.83;105344;1270;62447;-68
2022/11/22 02:41:39;;;;;;;44.80;20.90;;;;;;;1.51;99.92;100351.96;105532;1268;59914;-69
2022/11/22 02:44:09;;;;;;;42.40;21.20;;;;;;;1.56;100.00;100352.09;105469;1270;74341;-69
2022/11/22 02:46:51;;;;;;;48.20;21.70;;;;;;;1.49;99.26;100349.95;105480;1260;59225;-68
2022/11/22 02:49:24;;;;;;;39.90;20.10;;;;;;;1.54;99.92;100352.67;105384;1277;59049;-69
2022/11/22 02:51:52;;;;;;;48.30;21.40;;;;;;;1.46;99.14;100352.16;105524;1260;73500;-68
2022/11/22 02:54:21;;;;;;;46.90;21.40;;;;;;;1.57;100.00;100350.35;105659;1267;71996;-67
2022/11/22 02:56:50;;;;;;;42.40;19.40;;;;;;;1.67;100.00;100348.73;105536;1275;59458;-68
2022/11/22 02:59:19;;;;;;;44.20;20.00;;;;;;;1.58;100.00;100350.31;105489;1267;62616;-69
2022/11/22 03:01:48;;;;;;;52.50;21.60;;;;;;;1.58;100.00;100352.20;105492;1265;61339;-68
2022/11/22 03:04:35;;;;;;;51.90;21.00;;;;;;;1.50;100.00;100353.20;105549;1266;58665;-67
2022/11/22 03:07:04;;;;;;;48.10;21.40;;;;;;;1.48;100.00;100358.42;105488;1271;62467;-68
2022/11/22 03:09:33;;;;;;;39.80;20.70;;;;;;;1.51;100.00;100364.34;105552;1274;61428;-68
2022/11/22 03:12:02;;;;;;;48.80;21.90;;;;;;;1.48;99.96;100360.84;105495;1275;58961;-69
2022/11/22 03:14:31;;;;;;;43.00;20.20;;;;;;;1.60;100.00;100362.77;105511;1267;63211;-69
2022/11/22 03:17:00;;;;;;;44.30;22.60;;;;;;;1.59;99.63;100363.83;105440;1267;61256;-70
2022/11/22 03:19:29;;;;;;;50.80;22.80;;;;;;;1.60;99.64;100361.02;105192;1270;393955;-69
2022/11/22 03:21:58;;;;;;;48.60;22.60;;;;;;;1.69;100.00;100360.86;105580;1275;62010;-68
2022/11/22 03:24:27;;;;;;;46.60;21.60;;;;;;;1.73;99.92;100357.93;105564;1266;71376;-68
2022/11/22 03:26:55;;;;;;;46.60;22.10;;;;;;;1.71;99.56;100358.00;105530;1271;69836;-68
2022/11/22 03:29:24;;;;;;;37.10;20.00;;;;;;;1.80;99.05;100360.20;105453;1270;73083;-70
2022/11/22 03:31:53;;;;;;;48.80;23.40;;;;;;;1.84;98.70;100361.60;105518;1266;62127;-70
2022/11/22 03:34:23;;;;;;;39.00;20.10;;;;;;;1.88;100.00;100372.23;105497;1269;61342;-68
2022/11/22 03:36:52;;;;;;;43.40;19.60;;;;;;;2.02;100.00;100379.05;105470;1267;73838;-66
2022/11/22 03:39:20;;;;;;;40.60;16.80;;;;;;;2.02;98.15;100378.53;105419;1275;72761;-69
2022/11/22 03:41:49;;;;;;;45.50;19.70;;;;;;;1.89;97.91;100378.73;105497;1262;61178;-71
2022/11/22 03:44:18;;;;;;;32.80;17.50;;;;;;;1.72;97.92;100376.50;105539;1270;74600;-69
2022/11/22 03:46:47;;;;;;;39.10;19.00;;;;;;;1.63;98.65;100377.05;105507;1261;58779;-69
2022/11/22 03:49:16;;;;;;;33.60;17.80;;;;;;;1.59;98.45;100382.88;105488;1266;59069;-68
2022/11/22 03:51:45;;;;;;;37.90;19.20;;;;;;;1.52;97.67;100387.43;105475;1275;62449;-69
2022/11/22 03:54:14;;;;;;;38.30;18.90;;;;;;;1.58;98.55;100390.99;105509;1270;61571;-71
2022/11/22 03:56:43;;;;;;;45.00;19.80;;;;;;;1.53;96.95;100391.37;105523;1275;59931;-70
2022/11/22 03:59:12;;;;;;;39.30;16.70;;;;;;;1.58;98.35;100394.77;105476;1271;62685;-71
2022/11/22 04:01:41;;;;;;;44.50;17.50;;;;;;;1.61;100.00;100390.16;105515;1265;59083;-71
2022/11/22 04:04:10;;;;;;;40.20;18.90;;;;;;;1.49;100.00;100390.98;105444;1270;58784;-72
2022/11/22 04:06:39;;;;;;;41.70;19.60;;;;;;;1.39;100.00;100395.70;105434;1270;63706;-70
2022/11/22 04:09:09;;;;;;;39.70;17.90;;;;;;;1.35;100.00;100393.45;105496;1266;71482;-70
2022/11/22 04:11:40;;;;;;;34.60;18.20;;;;;;;1.33;100.00;100390.08;105422;1268;70143;-69
2022/11/22 04:16:59;;;;;;;31.90;17.50;;;;;;;1.43;99.73;100385.23;105450;1268;59419;-70
2022/11/22 04:19:28;;;;;;;31.40;16.40;;;;;;;1.43;98.95;100390.06;105510;1275;58235;-71
2022/11/22 04:21:58;;;;;;;32.70;17.50;;;;;;;1.40;98.81;100391.19;105490;1275;72815;-70
2022/11/22 04:27:14;;;;;;;29.70;12.20;;;;;;;1.55;100.00;100405.70;105488;1265;69747;-70
2022/11/22 04:29:43;;;;;;;18.00;8.70;;;;;;;1.44;99.83;100407.49;105516;1267;74397;-72
2022/11/22 04:34:59;;;;;;;22.60;11.60;;;;;;;1.18;100.00;100404.05;105501;1267;59102;-71
2022/11/22 04:37:28;;;;;;;32.80;15.20;;;;;;;1.14;100.00;100407.98;105419;1275;62325;-71
2022/11/22 04:39:57;;;;;;;27.90;13.30;;;;;;;1.17;100.00;100408.58;105389;1270;62251;-72
2022/11/22 04:45:13;;;;;;;39.00;16.20;;;;;;;1.08;100.00;100409.57;105527;1270;73407;-71
2022/11/22 04:48:00;;;;;;;37.40;15.80;;;;;;;1.07;100.00;100402.42;105539;1269;59103;-71
2022/11/22 04:53:18;;;;;;;35.00;12.30;;;;;;;1.24;100.00;100406.73;105791;1275;62292;-69
2022/11/22 04:55:47;;;;;;;32.60;14.90;;;;;;;1.26;100.00;100406.33;105678;1260;61953;-69
2022/11/22 04:58:16;;;;;;;33.00;13.80;;;;;;;1.25;100.00;100407.05;105539;1273;60444;-72
2022/11/22 05:00:46;;;;;;;33.70;16.20;;;;;;;1.18;100.00;100405.08;105453;1267;73048;-71
2022/11/22 05:03:16;;;;;;;39.00;17.10;;;;;;;1.01;100.00;100404.35;105503;1271;61701;-73
2022/11/22 05:05:44;;;;;;;39.00;17.20;;;;;;;1.03;100.00;100406.35;105375;1269;61287;-71
2022/11/22 05:08:14;;;;;;;45.40;18.80;;;;;;;0.98;99.83;100401.21;105514;1275;62698;-70
2022/11/22 05:10:58;;;;;;;42.40;20.30;;;;;;;0.99;100.00;100405.80;105564;1265;71035;-70
2022/11/22 05:13:36;;;;;;;45.50;17.00;;;;;;;1.03;100.00;100403.95;105653;1266;68180;-71
2022/11/22 05:16:08;;;;;;;49.60;19.90;;;;;;;1.09;100.00;100404.90;105565;1275;62282;-72
2022/11/22 05:18:37;;;;;;;46.00;18.40;;;;;;;0.99;100.00;100405.80;105494;1278;60435;-71
2022/11/22 05:21:12;;;;;;;52.60;20.00;;;;;;;1.04;100.00;100405.26;105514;1271;59186;-71
2022/11/22 05:23:53;;;;;;;57.60;20.90;;;;;;;1.08;100.00;100409.09;105491;1272;62097;-69
2022/11/22 05:26:34;;;;;;;57.20;21.70;;;;;;;1.05;100.00;100413.65;105458;1269;61081;-70
2022/11/22 05:29:09;;;;;;;39.30;20.00;;;;;;;1.01;100.00;100419.10;105411;1277;59239;-69
2022/11/22 05:31:39;;;;;;;47.70;20.90;;;;;;;1.03;100.00;100420.92;105506;1275;63305;-71
2022/11/22 05:34:08;;;;;;;52.80;22.50;;;;;;;1.02;100.00;100428.85;105518;1269;59595;-70
2022/11/22 05:36:37;;;;;;;47.00;21.20;;;;;;;1.02;100.00;100432.25;105552;1270;59918;-70
2022/11/22 05:39:06;;;;;;;46.90;20.60;;;;;;;0.98;100.00;100432.42;105512;1265;72445;-70
2022/11/22 05:41:34;;;;;;;43.60;20.00;;;;;;;1.03;100.00;100434.27;105521;1266;72326;-70
2022/11/22 05:44:04;;;;;;;41.50;19.30;;;;;;;1.04;100.00;100435.13;105529;1274;69825;-70
2022/11/22 05:46:33;;;;;;;51.50;21.70;;;;;;;1.10;100.00;100446.55;105554;1266;72332;-70
2022/11/22 05:49:02;;;;;;;47.10;20.00;;;;;;;1.12;100.00;100442.54;105395;1267;60630;-71
2022/11/22 05:51:31;;;;;;;46.30;18.70;;;;;;;1.08;99.96;100449.91;105467;1265;61142;-71
2022/11/22 05:54:02;;;;;;;47.70;18.50;;;;;;;1.11;100.00;100452.52;105478;1266;73649;-71
2022/11/22 05:56:31;;;;;;;47.10;18.20;;;;;;;1.08;100.00;100449.05;105564;1277;72203;-71
2022/11/22 05:59:00;;;;;;;48.20;19.20;;;;;;;1.13;100.00;100453.81;105412;1270;70574;-69
2022/11/22 06:01:29;;;;;;;36.00;13.50;;;;;;;1.11;100.00;100452.33;105458;1275;63989;-71
2022/11/22 06:03:58;;;;;;;42.00;17.40;;;;;;;1.14;100.00;100452.39;105464;1266;58930;-70
2022/11/22 06:06:27;;;;;;;43.00;16.90;;;;;;;1.05;100.00;100463.54;105508;1267;60415;-70
2022/11/22 06:08:57;;;;;;;48.60;18.60;;;;;;;1.12;100.00;100461.05;105544;1267;73391;-71
2022/11/22 06:11:27;;;;;;;49.30;19.90;;;;;;;0.97;100.00;100458.00;105484;1274;72002;-71
2022/11/22 06:13:59;;;;;;;48.70;20.60;;;;;;;0.95;100.00;100460.47;105437;1267;70765;-70
2022/11/22 06:16:28;;;;;;;46.20;17.30;;;;;;;1.05;100.00;100464.77;105511;1266;74148;-70
2022/11/22 06:18:56;;;;;;;57.00;21.50;;;;;;;1.02;100.00;100467.27;105498;1265;61110;-70
2022/11/22 06:21:27;;;;;;;51.50;19.60;;;;;;;1.08;100.00;100468.77;105515;1276;61107;-70
2022/11/22 06:23:56;;;;;;;43.00;20.30;;;;;;;1.16;100.00;100466.39;105571;1278;72677;-71
2022/11/22 06:26:25;;;;;;;37.40;14.30;;;;;;;1.16;100.00;100472.92;105592;1270;72238;-73
2022/11/22 06:28:54;;;;;;;48.10;18.60;;;;;;;1.20;100.00;100476.73;105519;1276;69932;-69
2022/11/22 06:31:26;;;;;;;35.90;15.00;;;;;;;1.16;100.00;100481.34;105541;1266;73513;-70
2022/11/22 06:33:58;;;;;;;53.80;19.10;;;;;;;1.06;100.00;100483.77;105498;1262;59027;-70
2022/11/22 06:36:30;;;;;;;32.90;13.70;;;;;;;1.11;100.00;100488.89;105455;1276;58938;-72
2022/11/22 06:39:03;;;;;;;50.70;19.70;;;;;;;1.15;100.00;100487.88;105424;1273;62877;-73
2022/11/22 06:41:36;;;;;;;51.50;15.90;;;;;;;1.11;100.00;100481.16;105363;1275;61953;-72
2022/11/22 06:44:07;;;;;;;38.40;15.00;;;;;;;1.24;100.00;100481.20;105490;1267;70415;-72
2022/11/22 06:46:36;;;;;;;33.20;13.80;;;;;;;1.28;100.00;100477.11;105505;1270;63566;-72
2022/11/22 06:49:05;;;;;;;28.50;12.70;;;;;;;1.26;100.00;100475.62;105454;1267;60439;-72
2022/11/22 06:51:34;;;;;;;45.50;17.30;;;;;;;1.18;100.00;100478.49;105493;1275;60266;-71
2022/11/22 06:54:03;;;;;;;34.70;14.70;;;;;;;1.23;100.00;100479.52;105403;1266;72356;-70
2022/11/22 06:56:37;;;;;;;21.40;11.40;;;;;;;1.24;100.00;100481.35;105416;1264;69572;-71
2022/11/22 06:59:07;;;;;;;18.20;8.80;;;;;;;1.23;100.00;100488.44;105434;1270;70373;-71
2022/11/22 07:01:37;;;;;;;34.60;14.20;;;;;;;1.16;100.00;100493.66;105500;1270;62950;-72
2022/11/22 07:04:06;;;;;;;31.70;12.80;;;;;;;1.15;100.00;100497.84;105475;1273;59683;-71
2022/11/22 07:06:37;;;;;;;29.60;12.70;;;;;;;1.24;100.00;100498.86;105424;1271;59030;-73
2022/11/22 07:09:09;;;;;;;47.20;17.20;;;;;;;1.05;100.00;100489.25;105513;1267;71574;-72
2022/11/22 07:11:39;;;;;;;41.00;14.50;;;;;;;1.16;100.00;100489.38;105445;1266;60924;-71
2022/11/22 07:14:08;;;;;;;40.00;15.80;;;;;;;1.30;100.00;100491.45;105464;1275;68903;-71
2022/11/22 07:16:38;;;;;;;41.60;16.10;;;;;;;1.26;100.00;100487.83;105444;1266;71447;-72
2022/11/22 07:19:06;;;;;;;121.00;59.00;;;;;;;1.25;100.00;100487.31;105470;1265;61690;-72
2022/11/22 07:21:39;;;;;;;65.70;23.50;;;;;;;1.25;100.00;100487.48;105479;1266;60553;-73
2022/11/22 07:24:08;;;;;;;56.40;20.80;;;;;;;1.45;100.00;100492.92;105444;1271;73593;-72
2022/11/22 07:26:36;;;;;;;55.10;24.60;;;;;;;1.36;100.00;100483.30;105222;1278;73305;-72
2022/11/22 07:29:05;;;;;;;53.10;20.50;;;;;;;1.20;100.00;100488.38;105350;1266;69906;-71
2022/11/22 07:31:34;;;;;;;48.80;17.90;;;;;;;1.43;100.00;100486.13;105313;1275;71713;-70
2022/11/22 07:34:03;;;;;;;30.50;13.40;;;;;;;1.65;100.00;100490.45;105348;1265;59928;-70
2022/11/22 07:36:32;;;;;;;35.70;16.20;;;;;;;1.62;100.00;100489.17;105374;1263;59884;-71
2022/11/22 07:39:02;;;;;;;47.10;18.70;;;;;;;1.55;100.00;100491.34;105407;1267;71700;-71
2022/11/22 07:41:31;;;;;;;30.00;13.20;;;;;;;1.56;100.00;100501.61;105387;1271;72030;-70
2022/11/22 07:44:00;;;;;;;41.30;18.10;;;;;;;1.66;100.00;100500.02;105422;1267;70393;-71
2022/11/22 07:46:30;;;;;;;57.90;21.40;;;;;;;1.72;100.00;100496.00;105518;1274;73024;-71
2022/11/22 07:49:01;;;;;;;42.30;19.30;;;;;;;1.67;99.68;100489.69;105449;1275;60477;-70
2022/11/22 07:51:30;;;;;;;34.30;17.20;;;;;;;1.66;98.58;100491.45;105555;1267;59480;-71
2022/11/22 07:53:59;;;;;;;45.40;19.90;;;;;;;1.90;98.46;100491.02;105563;1265;72956;-71
2022/11/22 07:56:27;;;;;;;52.70;24.70;;;;;;;2.20;98.32;100487.54;105496;1265;71998;-71
2022/11/22 07:58:56;;;;;;;54.20;22.40;;;;;;;2.38;97.52;100489.38;105403;1269;70980;-70
2022/11/22 08:01:25;;;;;;;51.40;21.70;;;;;;;2.68;97.94;100483.98;105478;1267;73610;-70
2022/11/22 08:03:55;;;;;;;51.20;20.90;;;;;;;2.94;98.21;100481.27;105539;1266;62174;-69
2022/11/22 08:06:24;;;;;;;37.30;19.50;;;;;;;2.90;94.87;100485.23;105533;1265;60302;-70
2022/11/22 08:08:53;;;;;;;46.20;20.30;;;;;;;3.15;95.69;100489.98;105523;1270;71083;-72
2022/11/22 08:11:29;;;;;;;31.60;17.10;;;;;;;3.19;94.78;100488.26;105490;1270;60999;-71
2022/11/22 08:13:58;;;;;;;43.60;20.20;;;;;;;3.11;94.07;100489.64;105482;1276;68214;-70
2022/11/22 08:16:27;;;;;;;36.00;19.10;;;;;;;2.90;90.99;100486.10;105575;1266;70991;-71
2022/11/22 08:18:57;;;;;;;31.10;17.00;;;;;;;2.90;90.98;100481.29;105576;1270;59436;-70
2022/11/22 08:21:25;;;;;;;40.90;20.70;;;;;;;2.84;90.86;100483.79;105480;1264;59384;-71
2022/11/22 08:23:58;;;;;;;36.20;18.40;;;;;;;3.02;91.84;100491.25;105498;1275;72730;-70
2022/11/22 08:26:26;;;;;;;31.40;17.30;;;;;;;2.86;91.25;100492.65;105472;1267;70535;-72
2022/11/22 08:28:55;;;;;;;36.40;19.00;;;;;;;2.96;90.58;100493.27;105620;1261;68502;-72
2022/11/22 08:31:25;;;;;;;30.90;18.00;;;;;;;2.96;89.59;100486.70;105632;1275;62756;-73
2022/11/22 08:33:54;;;;;;;31.40;18.50;;;;;;;3.10;89.45;100482.13;105740;1269;61972;-73
2022/11/22 08:36:23;;;;;;;29.90;16.70;;;;;;;3.18;89.13;100481.89;105691;1272;60782;-73
2022/11/22 08:38:53;;;;;;;26.80;16.00;;;;;;;3.27;88.87;100485.16;105562;1270;72546;-72
2022/11/22 08:41:22;;;;;;;33.30;19.20;;;;;;;3.54;89.74;100494.02;105569;1266;71743;-72
2022/11/22 08:43:52;;;;;;;33.30;16.40;;;;;;;3.68;89.85;100495.98;105595;1262;68380;-71
2022/11/22 08:46:21;;;;;;;25.60;16.30;;;;;;;3.63;87.05;100489.34;105530;1276;74119;-70
2022/11/22 08:48:53;;;;;;;30.80;18.60;;;;;;;3.45;87.16;100484.30;105546;1266;61536;-72
2022/11/22 08:51:21;;;;;;;39.10;20.60;;;;;;;3.62;86.93;100489.38;105488;1267;60331;-74
2022/11/22 08:53:50;;;;;;;35.80;20.30;;;;;;;3.79;87.14;100478.22;105539;1267;73915;-70
2022/11/22 08:56:19;;;;;;;30.60;18.10;;;;;;;3.84;85.71;100484.52;105479;1270;72521;-73
2022/11/22 08:58:48;;;;;;;35.10;18.80;;;;;;;3.90;85.62;100484.23;105606;1270;70244;-71
2022/11/22 09:01:18;;;;;;;34.10;17.90;;;;;;;4.07;86.12;100485.97;105482;1275;72887;-72
2022/11/22 09:03:47;;;;;;;32.10;17.50;;;;;;;4.38;92.24;100498.11;105505;1270;61441;-72
2022/11/22 09:06:19;;;;;;;30.50;17.70;;;;;;;4.40;89.84;100493.84;105547;1267;59072;-70
2022/11/22 09:09:08;;;;;;;27.00;17.30;;;;;;;4.28;84.59;100495.15;105549;1267;63633;-70
2022/11/22 09:11:57;;;;;;;39.40;21.10;;;;;;;4.54;87.44;100492.11;105517;1265;61434;-72
2022/11/22 09:14:26;;;;;;;31.20;18.00;;;;;;;4.86;87.64;100485.10;105471;1273;68998;-70
2022/11/22 09:16:54;;;;;;;41.80;21.50;;;;;;;4.92;82.89;100475.30;105446;1270;73218;-70
2022/11/22 09:19:23;;;;;;;33.70;17.30;;;;;;;5.18;82.18;100477.35;105460;1275;62775;-70
2022/11/22 09:21:52;;;;;;;31.70;18.20;;;;;;;5.50;86.71;100477.36;105518;1276;60512;-71
2022/11/22 09:24:21;;;;;;;28.90;17.60;;;;;;;4.89;81.25;100476.15;105530;1274;62927;-71
2022/11/22 09:26:50;;;;;;;35.70;19.90;;;;;;;4.94;81.53;100478.28;105548;1266;61037;-73
2022/11/22 09:29:19;;;;;;;30.90;16.70;;;;;;;4.85;81.52;100482.59;105552;1270;59377;-72
2022/11/22 09:31:48;;;;;;;31.30;16.90;;;;;;;4.80;82.54;100480.59;105494;1275;62737;-73
2022/11/22 09:34:17;;;;;;;38.30;18.20;;;;;;;4.78;81.59;100480.16;105524;1269;60860;-71
2022/11/22 09:36:46;;;;;;;34.20;18.30;;;;;;;5.10;82.73;100479.02;105493;1269;58995;-73
2022/11/22 09:39:15;;;;;;;27.20;16.00;;;;;;;5.42;87.82;100471.27;105542;1269;62927;-71
2022/11/22 09:42:10;;;;;;;35.80;19.50;;;;;;;5.39;83.26;100461.18;105456;1264;71664;-72
2022/11/22 09:45:35;;;;;;;36.00;20.50;;;;;;;5.53;84.59;100454.93;105599;1270;59293;-70
2022/11/22 09:48:25;;;;;;;36.90;22.00;;;;;;;5.51;83.08;100461.80;105291;1266;62808;-69
2022/11/22 09:51:18;;;;;;;27.40;16.80;;;;;;;5.23;79.95;100463.14;105503;1274;59078;-71
2022/11/22 09:53:57;;;;;;;31.70;18.80;;;;;;;5.01;79.80;100463.10;105481;1267;60199;-70
2022/11/22 09:56:28;;;;;;;36.80;20.60;;;;;;;5.37;83.46;100456.30;105481;1275;74861;-73
2022/11/22 09:59:20;;;;;;;28.40;17.90;;;;;;;5.40;81.61;100457.69;105499;1268;61168;-70
2022/11/22 10:02:17;;;;;;;29.30;17.40;;;;;;;5.37;79.91;100448.70;105417;1260;70370;-70
2022/11/22 10:05:00;;;;;;;31.50;17.90;;;;;;;5.46;79.11;100452.34;105463;1264;63579;-71
2022/11/22 10:07:36;;;;;;;35.30;19.50;;;;;;;5.51;78.93;100451.92;105520;1275;63018;-72
2022/11/22 10:10:24;;;;;;;36.20;21.40;;;;;;;5.63;78.26;100450.91;105612;1270;57764;-74
2022/11/22 10:13:10;;;;;;;36.30;21.90;;;;;;;5.83;78.89;100456.17;105506;1269;74249;-72
2022/11/22 10:16:18;;;;;;;37.40;22.30;;;;;;;5.99;79.59;100450.79;105441;1275;62582;-72
2022/11/22 10:19:00;;;;;;;27.10;18.00;;;;;;;6.36;79.72;100456.11;105350;1266;70632;-72
2022/11/22 10:21:29;;;;;;;35.30;20.70;;;;;;;6.32;75.08;100452.52;105479;1274;63510;-72
2022/11/22 10:23:58;;;;;;;30.50;18.70;;;;;;;6.56;78.43;100456.93;105465;1270;58818;-72
2022/11/22 10:26:33;;;;;;;22.60;13.80;;;;;;;7.14;81.76;100459.15;105483;1275;57979;-72
2022/11/22 10:29:13;;;;;;;30.50;17.00;;;;;;;7.35;77.80;100464.05;105468;1266;74292;-71
2022/11/22 10:31:42;;;;;;;29.70;18.00;;;;;;;7.25;77.08;100461.26;105353;1274;71096;-72
2022/11/22 10:34:35;;;;;;;30.40;16.90;;;;;;;7.51;85.04;100464.09;105393;1266;60532;-73
2022/11/22 10:37:38;;;;;;;31.10;17.80;;;;;;;7.47;79.14;100468.84;105377;1266;73775;-72
2022/11/22 10:40:46;;;;;;;26.60;16.40;;;;;;;7.24;72.96;100459.22;105161;1264;59628;-72
2022/11/22 10:44:11;;;;;;;25.10;14.20;;;;;;;7.82;78.85;100453.95;105353;1266;59585;-71
2022/11/22 10:47:05;;;;;;;28.90;17.60;;;;;;;7.63;75.31;100447.04;105001;1276;74724;-72
2022/11/22 10:50:00;;;;;;;21.30;14.90;;;;;;;7.88;78.08;100444.21;105355;1265;61396;-72
2022/11/22 10:53:09;;;;;;;20.80;14.10;;;;;;;7.54;70.68;100446.03;105297;1266;60224;-73
2022/11/22 10:56:34;;;;;;;26.00;15.10;;;;;;;7.86;71.28;100447.32;105288;1260;73390;-72
2022/11/22 10:59:36;;;;;;;32.60;17.60;;;;;;;7.76;70.34;100452.29;105235;1261;63807;-70
2022/11/22 11:02:31;;;;;;;22.90;14.40;;;;;;;8.20;74.94;100459.41;105333;1275;61160;-71
2022/11/22 11:05:06;;;;;;;23.90;15.50;;;;;;;7.94;73.02;100461.64;105319;1270;74603;-70
2022/11/22 11:07:40;;;;;;;28.60;16.00;;;;;;;7.97;75.03;100468.77;105324;1261;61928;-72
2022/11/22 11:10:19;;;;;;;24.90;16.20;;;;;;;8.14;81.08;100478.59;105292;1270;68865;-71
2022/11/22 11:13:22;;;;;;;31.40;17.50;;;;;;;8.16;78.98;100480.01;105434;1267;63622;-70
2022/11/22 11:15:58;;;;;;;25.70;15.80;;;;;;;8.24;79.97;100482.60;105339;1267;61498;-70
2022/11/22 11:18:55;;;;;;;24.50;16.20;;;;;;;8.05;78.79;100480.03;105325;1270;59655;-71
2022/11/22 11:21:26;;;;;;;21.40;15.30;;;;;;;7.88;73.26;100481.87;105347;1270;74111;-75
2022/11/22 11:23:55;;;;;;;22.30;14.30;;;;;;;7.43;70.80;100483.50;105283;1267;71765;-71
2022/11/22 11:26:33;;;;;;;23.80;15.60;;;;;;;7.28;71.70;100483.08;105396;1266;70388;-72
2022/11/22 11:29:17;;;;;;;27.00;16.90;;;;;;;7.41;71.59;100483.31;105419;1267;63524;-70
2022/11/22 11:31:49;;;;;;;25.00;16.20;;;;;;;7.42;73.71;100486.50;105363;1264;59630;-72
2022/11/22 11:34:24;;;;;;;25.20;14.90;;;;;;;7.15;72.11;100487.66;105236;1267;59726;-71
2022/11/22 11:36:56;;;;;;;28.20;13.90;;;;;;;7.09;72.38;100491.85;105472;1275;62881;-70
2022/11/22 11:39:33;;;;;;;30.90;16.50;;;;;;;7.06;72.82;100493.75;105469;1267;60772;-71
2022/11/22 11:42:21;;;;;;;27.40;17.80;;;;;;;6.95;72.75;100498.08;105377;1267;59973;-72
2022/11/22 11:44:51;;;;;;;23.90;15.80;;;;;;;7.14;74.54;100506.08;105498;1266;73438;-73
2022/11/22 11:47:34;;;;;;;24.90;14.50;;;;;;;7.16;74.13;100507.35;105469;1262;63407;-72